UNGO2: Muddy Boggy, Unger, OK

                                SHEF ID:       UNGO2     Muddy Boggy Creek near Unger, OK
STATION TYPE:
Regulating: Stage = 39.00, Flow = 17600

PRECIP STAGE STAGE(2) RIV-FLOW BAT-LOAD
in ft ft cfs volt
Ccp-Rev Ccp-Rev Ccp-Rev Ccp-Rev Ccp-Rev
(America/Chicago)
03/06 00:00 0.00 12.17 ---- 676 12.89
03/06 01:00 0.00 12.35 ---- 714 12.89
03/06 02:00 0.00 12.50 ---- 746 12.89
03/06 03:00 0.00 12.66 ---- 782 12.89
03/06 04:00 0.00 12.83 ---- 820 12.81
03/06 05:00 0.00 13.04 ---- 869 12.81
03/06 06:00 0.00 13.29 ---- 929 12.81
03/06 07:00 0.00 13.56 ---- 994 12.81
03/06 08:00 0.00 13.85 ---- 1070 12.81
03/06 09:00 0.00 14.13 ---- 1140 12.89
03/06 10:00 0.00 14.41 ---- 1210 12.97
03/06 11:00 0.00 14.66 ---- 1280 12.97
03/06 12:00 0.00 14.89 ---- 1350 13.05
03/06 13:00 0.00 15.10 ---- 1410 13.21
03/06 14:00 0.00 15.26 ---- 1460 13.37
03/06 15:00 0.00 15.44 ---- 1510 13.21
03/06 16:00 0.00 15.56 ---- 1550 13.21
03/06 17:00 0.00 15.64 ---- 1570 13.13
03/06 18:00 0.00 15.70 ---- 1590 13.05
03/06 19:00 0.00 15.75 ---- 1610 12.97
03/06 20:00 0.00 15.80 ---- 1620 12.97
03/06 21:00 0.00 15.82 ---- 1630 12.97
03/06 22:00 0.00 15.86 ---- 1640 12.97
03/06 23:00 0.00 15.94 ---- 1670 12.89
Data processed at Sat 07Mar2026 05:47 GMT

NOTICE: If you are parsing this page

Please convert to using our Data API. Starting early 2026 we will be migrating to: https://water.usace.army.mil with modern pages rendered in JavaScript. When this migration completes you will no longer be able to scrape this page! CWMSDataAPI (CDA)

Timeseries IDs (TSIDs)

TSIDs used from left to right in the data table
UNGE.Precip-Inc.Total.1Hour.1Hour.Ccp-Rev
UNGE.Stage.Inst.1Hour.0.Ccp-Rev
UNGE.Stage-Alt.Inst.1Hour.0.Ccp-Rev
UNGE.Flow.Inst.1Hour.0.Ccp-Rev
UNGE.Volt-Battery Load.Inst.1Hour.0.Ccp-Rev

                            

All information presented herein is the property of the government of the United States of America and may be revised or deleted at any time without prior notice. Dissemination of this information without the expressed written consent of the Public Affairs Office, Tulsa District U.S. Army Corps of Engineers is strictly prohibited. These data are gathered electronically and, as presented, have NOT undergone any form of quality control. These data are NOT guaranteed to be valid or correct.